createdAt,value
2023-03-21T00:00:45.850Z,19.49
2023-03-21T00:03:14.716Z,19.49
2023-03-21T00:05:43.883Z,19.49
2023-03-21T00:08:11.837Z,19.49
2023-03-21T00:10:43.549Z,19.48
2023-03-21T00:13:32.305Z,19.46
2023-03-21T00:16:15.935Z,19.46
2023-03-21T00:18:54.805Z,19.47
2023-03-21T00:21:44.357Z,19.46
2023-03-21T00:24:10.182Z,19.47
2023-03-21T00:26:37.009Z,19.45
2023-03-21T00:29:04.352Z,19.46
2023-03-21T00:31:31.598Z,19.47
2023-03-21T00:33:58.939Z,19.46
2023-03-21T00:36:31.801Z,19.46
2023-03-21T00:39:02.159Z,19.46
2023-03-21T00:41:45.601Z,19.47
2023-03-21T00:44:16.212Z,19.45
2023-03-21T00:46:54.570Z,19.47
2023-03-21T00:49:34.897Z,19.47
2023-03-21T00:52:27.582Z,19.45
2023-03-21T00:54:51.185Z,19.45
2023-03-21T00:57:20.277Z,19.44
2023-03-21T00:59:51.838Z,19.42
2023-03-21T01:02:20.358Z,19.42
2023-03-21T01:04:47.954Z,19.41
2023-03-21T01:07:14.949Z,19.41
2023-03-21T01:09:42.535Z,19.40
2023-03-21T01:12:09.794Z,19.39
2023-03-21T01:14:36.922Z,19.40
2023-03-21T01:17:04.958Z,19.39
2023-03-21T01:19:50.153Z,19.37
2023-03-21T01:22:19.078Z,19.37
2023-03-21T01:24:54.160Z,19.38
2023-03-21T01:27:26.731Z,19.38
2023-03-21T01:29:56.349Z,19.37
2023-03-21T01:32:26.875Z,19.35
2023-03-21T01:34:54.664Z,19.37
2023-03-21T01:37:21.862Z,19.36
2023-03-21T01:39:49.037Z,19.35
2023-03-21T01:42:16.506Z,19.34
2023-03-21T01:44:58.818Z,19.33
2023-03-21T01:47:28.738Z,19.32
2023-03-21T01:49:59.622Z,19.33
2023-03-21T01:52:39.124Z,19.32
2023-03-21T01:55:12.692Z,19.31
2023-03-21T01:58:03.912Z,19.31
2023-03-21T02:00:33.153Z,19.29
2023-03-21T02:03:18.904Z,19.30
2023-03-21T02:06:02.369Z,19.28
2023-03-21T02:08:39.641Z,19.28
2023-03-21T02:11:11.836Z,19.29
2023-03-21T02:13:42.305Z,19.27
2023-03-21T02:16:23.034Z,19.27
2023-03-21T02:19:06.877Z,19.25
2023-03-21T02:21:49.098Z,19.25
2023-03-21T02:24:37.236Z,19.25
2023-03-21T02:27:17.827Z,19.23
2023-03-21T02:30:35.369Z,19.23
2023-03-21T02:33:43.693Z,19.24
2023-03-21T02:36:25.390Z,19.24
2023-03-21T02:39:26.146Z,19.23
2023-03-21T02:42:09.508Z,19.23
2023-03-21T02:44:58.352Z,19.23
2023-03-21T02:48:14.566Z,19.22
2023-03-21T02:50:52.653Z,19.21
2023-03-21T02:53:30.616Z,19.22
2023-03-21T02:56:00.002Z,19.21
2023-03-21T02:58:32.731Z,19.21
2023-03-21T03:01:05.529Z,19.21
2023-03-21T03:03:34.840Z,19.21
2023-03-21T03:06:05.322Z,19.20
2023-03-21T03:08:45.269Z,19.21
2023-03-21T03:11:38.256Z,19.21
2023-03-21T03:14:39.968Z,19.18
2023-03-21T03:17:28.537Z,19.20
2023-03-21T03:20:18.614Z,19.19
2023-03-21T03:23:09.975Z,19.20
2023-03-21T03:25:44.368Z,19.19
2023-03-21T03:28:16.009Z,19.19
2023-03-21T03:31:05.438Z,19.18
2023-03-21T03:33:40.433Z,19.17
2023-03-21T03:36:18.809Z,19.15
2023-03-21T03:38:59.868Z,19.15
2023-03-21T03:42:00.909Z,19.15
2023-03-21T03:44:21.740Z,19.13
2023-03-21T03:46:57.436Z,19.13
2023-03-21T03:49:32.486Z,19.13
2023-03-21T03:52:23.084Z,19.11
2023-03-21T03:54:59.134Z,19.11
2023-03-21T03:57:28.417Z,19.10
2023-03-21T03:59:56.724Z,19.08
2023-03-21T04:02:26.578Z,19.09
2023-03-21T04:04:56.335Z,19.08
2023-03-21T04:07:28.448Z,19.09
2023-03-21T04:09:57.453Z,19.09
2023-03-21T04:12:29.205Z,19.08
2023-03-21T04:15:10.226Z,19.08
2023-03-21T04:17:43.776Z,19.06
2023-03-21T04:20:23.555Z,19.05
2023-03-21T04:22:57.665Z,19.04
2023-03-21T04:25:33.300Z,19.06
2023-03-21T04:28:01.339Z,19.04
2023-03-21T04:30:28.610Z,19.05
2023-03-21T04:32:55.680Z,19.03
2023-03-21T04:35:24.102Z,19.04
2023-03-21T04:37:55.546Z,19.03
2023-03-21T04:40:25.751Z,19.02
2023-03-21T04:42:53.234Z,19.01
2023-03-21T04:45:20.263Z,19.03
2023-03-21T04:47:47.267Z,19.03
2023-03-21T04:50:17.488Z,19.02
2023-03-21T04:52:44.889Z,19.03
2023-03-21T04:55:14.800Z,19.03
2023-03-21T04:57:42.540Z,19.00
2023-03-21T05:00:10.862Z,18.98
2023-03-21T05:02:42.912Z,18.97
2023-03-21T05:05:10.176Z,18.98
2023-03-21T05:07:42.074Z,18.96
2023-03-21T05:10:11.346Z,18.98
2023-03-21T05:12:38.768Z,18.95
2023-03-21T05:15:09.669Z,18.96
2023-03-21T05:17:37.292Z,18.98
2023-03-21T05:20:05.539Z,18.95
2023-03-21T05:22:38.581Z,18.95
2023-03-21T05:25:09.720Z,18.97
2023-03-21T05:27:40.027Z,18.97
2023-03-21T05:30:13.101Z,18.96
2023-03-21T05:32:44.291Z,18.97
2023-03-21T05:35:11.237Z,18.98
2023-03-21T05:37:38.537Z,18.97
2023-03-21T05:40:10.326Z,18.97
2023-03-21T05:42:44.159Z,18.97
2023-03-21T05:45:12.428Z,18.97
2023-03-21T05:47:42.068Z,18.98
2023-03-21T05:50:12.016Z,18.99
2023-03-21T05:52:39.982Z,18.98
2023-03-21T05:55:08.076Z,19.00
2023-03-21T05:57:39.081Z,18.99
2023-03-21T06:00:08.241Z,19.01
2023-03-21T06:02:35.965Z,19.00
2023-03-21T06:05:07.995Z,19.01
2023-03-21T06:07:36.335Z,19.02
2023-03-21T06:10:08.187Z,19.05
2023-03-21T06:12:35.235Z,19.08
2023-03-21T06:15:03.740Z,19.10
2023-03-21T06:17:31.469Z,19.12
2023-03-21T06:20:06.090Z,19.16
2023-03-21T06:22:36.748Z,19.17
2023-03-21T06:25:07.261Z,19.22
2023-03-21T06:27:35.729Z,19.25
2023-03-21T06:30:05.239Z,19.29
2023-03-21T06:32:35.507Z,19.32
2023-03-21T06:35:05.532Z,19.35
2023-03-21T06:37:35.840Z,19.38
2023-03-21T06:40:05.762Z,19.41
2023-03-21T06:42:33.428Z,19.45
2023-03-21T06:45:04.058Z,19.48
2023-03-21T06:47:34.890Z,19.51
2023-03-21T06:50:02.474Z,19.55
2023-03-21T06:52:29.885Z,19.56
2023-03-21T06:54:57.189Z,19.59
2023-03-21T06:57:24.508Z,19.62
2023-03-21T06:59:55.252Z,19.66
2023-03-21T07:02:25.906Z,19.69
2023-03-21T07:04:54.318Z,19.73
2023-03-21T07:07:28.943Z,19.75
2023-03-21T07:09:56.816Z,19.78
2023-03-21T07:12:24.290Z,19.80
2023-03-21T07:14:53.160Z,19.84
2023-03-21T07:17:19.960Z,19.86
2023-03-21T07:19:49.897Z,19.86
2023-03-21T07:22:16.779Z,19.89
2023-03-21T07:24:45.917Z,19.91
2023-03-21T07:27:15.179Z,19.92
2023-03-21T07:29:45.198Z,19.93
2023-03-21T07:32:11.903Z,19.96
2023-03-21T07:34:38.714Z,19.95
2023-03-21T07:37:06.538Z,19.96
2023-03-21T07:39:33.734Z,19.97
2023-03-21T07:42:00.830Z,19.98
2023-03-21T07:44:27.650Z,20.00
2023-03-21T07:46:54.550Z,20.00
2023-03-21T07:49:23.770Z,20.01
2023-03-21T07:51:56.659Z,20.02
2023-03-21T07:54:23.558Z,20.02
2023-03-21T07:56:56.291Z,20.03
2023-03-21T07:59:23.867Z,20.02
2023-03-21T08:01:50.967Z,20.02
2023-03-21T08:04:19.962Z,20.02
2023-03-21T08:06:46.852Z,20.02
2023-03-21T08:09:20.349Z,20.00
2023-03-21T08:11:51.036Z,20.01
2023-03-21T08:14:21.163Z,20.02
2023-03-21T08:16:51.081Z,20.04
2023-03-21T08:19:18.467Z,20.02
2023-03-21T08:21:45.291Z,20.03
2023-03-21T08:24:15.482Z,20.03
2023-03-21T08:26:48.539Z,20.03
2023-03-21T08:29:15.642Z,20.03
2023-03-21T08:31:45.789Z,20.06
2023-03-21T08:34:13.482Z,20.07
2023-03-21T08:36:43.244Z,20.09
2023-03-21T08:39:10.441Z,20.07
2023-03-21T08:41:41.163Z,20.08
2023-03-21T08:44:11.188Z,20.08
2023-03-21T08:46:40.954Z,20.09
2023-03-21T08:49:10.660Z,20.11
2023-03-21T08:51:40.668Z,20.14
2023-03-21T08:54:18.090Z,20.13
2023-03-21T08:56:44.870Z,20.14
2023-03-21T08:59:11.533Z,20.15
2023-03-21T09:01:39.333Z,20.15
2023-03-21T09:04:06.486Z,20.16
2023-03-21T09:06:34.182Z,20.16
2023-03-21T09:09:04.957Z,20.16
2023-03-21T09:11:35.020Z,20.15
2023-03-21T09:16:41.696Z,20.78
2023-03-21T09:19:09.061Z,20.79
2023-03-21T09:21:36.441Z,20.19
2023-03-21T09:24:04.173Z,20.18
2023-03-21T09:26:30.972Z,20.19
2023-03-21T09:28:57.762Z,20.21
2023-03-21T09:31:28.025Z,20.21
2023-03-21T09:33:55.469Z,20.22
2023-03-21T09:36:25.975Z,20.24
2023-03-21T09:38:54.116Z,20.25
2023-03-21T09:41:38.216Z,20.26
2023-03-21T09:44:42.640Z,20.26
2023-03-21T09:47:20.269Z,20.27
2023-03-21T09:50:07.528Z,20.30
2023-03-21T09:52:56.957Z,20.29
2023-03-21T09:55:36.708Z,20.29
2023-03-21T09:58:37.733Z,20.27
2023-03-21T10:01:12.993Z,20.28
2023-03-21T10:03:43.427Z,20.27
2023-03-21T10:06:14.805Z,20.28
2023-03-21T10:08:46.412Z,20.27
2023-03-21T10:11:23.807Z,20.27
2023-03-21T10:14:01.856Z,20.28
2023-03-21T10:16:56.154Z,20.30
2023-03-21T10:19:23.147Z,20.34
2023-03-21T10:22:06.995Z,20.38
2023-03-21T10:24:35.186Z,20.39
2023-03-21T10:27:03.086Z,20.39
2023-03-21T10:29:38.829Z,20.42
2023-03-21T10:32:09.424Z,20.40
2023-03-21T10:34:48.693Z,20.42
2023-03-21T10:37:15.947Z,20.44
2023-03-21T10:39:49.243Z,20.44
2023-03-21T10:42:28.521Z,20.42
2023-03-21T10:44:57.236Z,20.45
2023-03-21T10:47:42.948Z,20.43
2023-03-21T10:50:17.401Z,20.44
2023-03-21T10:52:51.363Z,20.44
2023-03-21T10:55:31.242Z,20.45
2023-03-21T10:58:06.632Z,20.44
2023-03-21T11:00:43.340Z,20.45
2023-03-21T11:03:36.528Z,20.44
2023-03-21T11:06:11.551Z,20.44
2023-03-21T11:08:50.762Z,20.44
2023-03-21T11:11:39.224Z,20.43
2023-03-21T11:14:24.351Z,20.41
2023-03-21T11:16:55.321Z,20.40
2023-03-21T11:19:35.768Z,20.39
2023-03-21T11:22:09.019Z,20.38
2023-03-21T11:24:36.367Z,20.37
2023-03-21T11:27:08.095Z,20.38
2023-03-21T11:29:37.654Z,20.38
2023-03-21T11:32:21.976Z,20.37
2023-03-21T11:35:01.815Z,20.37
2023-03-21T11:37:34.648Z,20.37
2023-03-21T11:40:24.787Z,20.38
2023-03-21T11:42:59.903Z,20.39
2023-03-21T11:45:29.628Z,20.40
2023-03-21T11:47:59.338Z,20.39
2023-03-21T11:50:40.693Z,20.39
2023-03-21T11:53:35.828Z,20.39
2023-03-21T11:56:12.631Z,20.38
2023-03-21T11:59:04.055Z,20.38
2023-03-21T12:01:59.396Z,20.37
2023-03-21T12:04:54.678Z,20.37
2023-03-21T12:07:40.486Z,20.38
2023-03-21T12:10:07.500Z,20.39
2023-03-21T12:12:39.868Z,20.39
2023-03-21T12:15:22.434Z,20.39
2023-03-21T12:18:15.109Z,20.40
2023-03-21T12:20:50.355Z,20.42
2023-03-21T12:23:45.387Z,20.44
2023-03-21T12:26:32.442Z,20.47
2023-03-21T12:29:23.914Z,20.52
2023-03-21T12:31:54.179Z,20.55
2023-03-21T12:34:39.258Z,20.57
2023-03-21T12:37:35.143Z,20.56
2023-03-21T12:40:28.601Z,20.56
2023-03-21T12:43:26.435Z,20.58
2023-03-21T12:46:04.431Z,20.57
2023-03-21T12:48:53.067Z,20.54
2023-03-21T12:51:26.730Z,20.55
2023-03-21T12:54:14.343Z,20.54
2023-03-21T12:57:04.553Z,20.55
2023-03-21T13:00:03.027Z,20.56
2023-03-21T13:02:34.137Z,20.55
2023-03-21T13:05:28.299Z,20.58
2023-03-21T13:08:15.288Z,20.59
2023-03-21T13:10:45.135Z,20.61
2023-03-21T13:13:26.520Z,20.63
2023-03-21T13:19:17.444Z,20.66
2023-03-21T13:22:02.508Z,20.65
2023-03-21T13:24:37.937Z,20.64
2023-03-21T13:27:22.325Z,20.65
2023-03-21T13:30:02.511Z,20.65
2023-03-21T13:32:32.219Z,20.67
2023-03-21T13:35:00.323Z,20.69
2023-03-21T13:37:33.812Z,20.69
2023-03-21T13:40:03.571Z,20.69
2023-03-21T13:42:34.318Z,20.69
2023-03-21T13:45:05.636Z,20.70
2023-03-21T13:47:40.846Z,20.70
2023-03-21T13:50:33.737Z,20.69
2023-03-21T13:53:19.297Z,20.70
2023-03-21T13:55:57.569Z,20.70
2023-03-21T13:58:33.912Z,20.69
2023-03-21T14:01:26.226Z,20.70
2023-03-21T14:04:11.736Z,20.68
2023-03-21T14:06:55.122Z,20.67
2023-03-21T14:09:37.121Z,20.67
2023-03-21T14:12:09.522Z,20.65
2023-03-21T14:14:42.576Z,20.64
2023-03-21T14:17:21.851Z,20.66
2023-03-21T14:19:55.398Z,20.67
2023-03-21T14:22:23.298Z,20.68
2023-03-21T14:25:01.392Z,20.65
2023-03-21T14:27:35.232Z,20.65
2023-03-21T14:30:06.760Z,20.64
2023-03-21T14:32:37.585Z,20.65
2023-03-21T14:35:04.940Z,20.63
2023-03-21T14:37:39.793Z,20.58
2023-03-21T14:40:18.390Z,20.58
2023-03-21T14:42:50.797Z,20.56
2023-03-21T14:45:26.899Z,20.54
2023-03-21T14:48:07.346Z,20.52
2023-03-21T14:50:51.655Z,20.52
2023-03-21T14:53:32.621Z,20.52
2023-03-21T14:56:07.841Z,20.51
2023-03-21T14:58:39.463Z,20.51
2023-03-21T15:01:13.787Z,20.52
2023-03-21T15:03:50.615Z,20.50
2023-03-21T15:06:17.672Z,20.50
2023-03-21T15:09:02.653Z,20.52
2023-03-21T15:11:39.483Z,20.52
2023-03-21T15:14:13.255Z,20.52
2023-03-21T15:16:40.236Z,20.54
2023-03-21T15:19:10.952Z,20.55
2023-03-21T15:21:48.756Z,20.58
2023-03-21T15:24:32.544Z,20.58
2023-03-21T15:27:20.142Z,20.62
2023-03-21T15:29:51.630Z,20.63
2023-03-21T15:32:21.885Z,20.64
2023-03-21T15:34:51.822Z,20.63
2023-03-21T15:37:28.403Z,20.64
2023-03-21T15:40:08.514Z,20.62
2023-03-21T15:42:40.461Z,20.54
2023-03-21T15:45:22.227Z,20.41
2023-03-21T15:47:52.213Z,20.42
2023-03-21T15:50:40.304Z,20.29
2023-03-21T15:53:32.160Z,20.24
2023-03-21T15:56:00.072Z,20.20
2023-03-21T15:58:33.095Z,20.18
2023-03-21T16:01:01.870Z,20.19
2023-03-21T16:03:32.002Z,20.28
2023-03-21T16:06:10.722Z,20.31
2023-03-21T16:08:44.706Z,20.33
2023-03-21T16:11:22.653Z,20.37
2023-03-21T16:13:50.400Z,20.41
2023-03-21T16:16:18.980Z,20.44
2023-03-21T16:18:45.888Z,20.47
2023-03-21T16:21:18.187Z,20.50
2023-03-21T16:23:45.756Z,20.51
2023-03-21T16:26:21.173Z,20.55
2023-03-21T16:28:51.442Z,20.52
2023-03-21T16:31:23.919Z,20.45
2023-03-21T16:33:51.100Z,20.47
2023-03-21T16:36:31.022Z,20.50
2023-03-21T16:39:02.168Z,20.47
2023-03-21T16:41:30.846Z,20.50
2023-03-21T16:43:58.938Z,20.49
2023-03-21T16:46:28.876Z,20.47
2023-03-21T16:48:59.867Z,20.46
2023-03-21T16:51:36.676Z,20.42
2023-03-21T16:54:05.066Z,20.44
2023-03-21T16:56:40.850Z,20.47
2023-03-21T16:59:08.023Z,20.45
2023-03-21T17:01:38.331Z,20.46
2023-03-21T17:04:08.929Z,20.49
2023-03-21T17:06:58.512Z,20.52
2023-03-21T17:09:28.847Z,20.47
2023-03-21T17:11:56.100Z,20.52
2023-03-21T17:14:23.262Z,20.54
2023-03-21T17:16:54.002Z,20.55
2023-03-21T17:19:24.485Z,20.57
2023-03-21T17:21:51.208Z,20.61
2023-03-21T17:24:18.042Z,20.61
2023-03-21T17:26:48.432Z,20.61
2023-03-21T17:29:21.962Z,20.59
2023-03-21T17:31:52.643Z,20.61
2023-03-21T17:34:20.186Z,20.59
2023-03-21T17:36:48.275Z,20.59
2023-03-21T17:39:26.832Z,20.57
2023-03-21T17:41:54.036Z,20.58
2023-03-21T17:44:23.763Z,20.61
2023-03-21T17:46:54.860Z,20.61
2023-03-21T17:49:25.333Z,20.63
2023-03-21T17:51:55.807Z,20.64
2023-03-21T17:54:26.662Z,20.64
2023-03-21T17:56:57.191Z,20.67
2023-03-21T17:59:28.277Z,20.68
2023-03-21T18:02:07.349Z,20.68
2023-03-21T18:04:39.371Z,20.69
2023-03-21T18:07:16.147Z,20.71
2023-03-21T18:09:48.457Z,20.73
2023-03-21T18:12:19.039Z,20.76
2023-03-21T18:14:51.366Z,20.76
2023-03-21T18:17:19.202Z,20.77
2023-03-21T18:19:46.948Z,20.80
2023-03-21T18:22:14.656Z,20.82
2023-03-21T18:24:44.902Z,20.84
2023-03-21T18:27:18.491Z,20.87
2023-03-21T18:30:25.635Z,20.91
2023-03-21T18:32:39.432Z,20.94
2023-03-21T18:35:09.495Z,20.99
2023-03-21T18:37:42.496Z,21.00
2023-03-21T18:40:10.122Z,21.02
2023-03-21T18:43:08.726Z,21.05
2023-03-21T18:45:29.988Z,21.07
2023-03-21T18:47:58.201Z,21.06
2023-03-21T18:50:29.089Z,21.08
2023-03-21T18:53:00.759Z,21.11
2023-03-21T18:55:44.505Z,21.12
2023-03-21T18:58:18.085Z,21.13
2023-03-21T19:00:45.865Z,21.16
2023-03-21T19:03:24.888Z,21.17
2023-03-21T19:06:07.649Z,21.18
2023-03-21T19:08:38.674Z,21.20
2023-03-21T19:11:06.985Z,21.22
2023-03-21T19:13:37.671Z,21.23
2023-03-21T19:16:11.605Z,21.24
2023-03-21T19:18:53.900Z,21.25
2023-03-21T19:21:30.039Z,21.26
2023-03-21T19:26:48.476Z,21.28
2023-03-21T19:29:16.430Z,21.30
2023-03-21T19:31:45.185Z,21.31
2023-03-21T19:34:15.919Z,21.31
2023-03-21T19:36:51.494Z,21.33
2023-03-21T19:39:23.502Z,21.34
2023-03-21T19:42:02.921Z,21.32
2023-03-21T19:44:43.274Z,21.33
2023-03-21T19:47:19.616Z,21.35
2023-03-21T19:52:37.808Z,21.41
2023-03-21T19:55:10.743Z,21.44
2023-03-21T19:57:39.017Z,21.49
2023-03-21T20:00:06.722Z,21.54
2023-03-21T20:02:40.229Z,21.58
2023-03-21T20:05:14.596Z,21.64
2023-03-21T20:07:47.229Z,21.67
2023-03-21T20:10:14.257Z,21.72
2023-03-21T20:12:41.116Z,21.76
2023-03-21T20:15:18.369Z,21.80
2023-03-21T20:17:49.144Z,21.85
2023-03-21T20:20:19.639Z,21.88
2023-03-21T20:23:15.815Z,21.91
2023-03-21T20:25:43.139Z,21.95
2023-03-21T20:28:24.707Z,21.98
2023-03-21T20:30:56.326Z,22.01
2023-03-21T20:33:23.581Z,22.04
2023-03-21T20:38:52.474Z,22.08
2023-03-21T20:41:25.352Z,22.14
2023-03-21T20:44:34.712Z,22.15
2023-03-21T20:46:42.698Z,22.18
2023-03-21T20:49:13.529Z,22.22
2023-03-21T20:54:28.275Z,22.26
2023-03-21T20:56:58.633Z,22.32
2023-03-21T20:59:28.131Z,22.33
2023-03-21T21:01:59.970Z,22.35
2023-03-21T21:04:44.879Z,22.37
2023-03-21T21:07:14.395Z,22.38
2023-03-21T21:09:42.559Z,22.41
2023-03-21T21:12:12.797Z,22.41
2023-03-21T21:14:40.810Z,22.43
2023-03-21T21:19:57.702Z,22.46
2023-03-21T21:22:27.376Z,22.49
2023-03-21T21:24:57.791Z,22.49
2023-03-21T21:27:27.075Z,22.47
2023-03-21T21:29:56.820Z,22.49
2023-03-21T21:32:23.668Z,22.48
2023-03-21T21:34:56.254Z,22.45
2023-03-21T21:37:28.535Z,22.42
2023-03-21T21:39:55.519Z,22.39
2023-03-21T21:42:22.576Z,22.38
2023-03-21T21:44:57.454Z,22.40
2023-03-21T21:47:24.436Z,22.37
2023-03-21T21:49:57.021Z,22.34
2023-03-21T21:52:24.023Z,22.31
2023-03-21T21:54:54.343Z,22.29
2023-03-21T21:57:21.627Z,22.27
2023-03-21T21:59:49.014Z,22.25
2023-03-21T22:02:18.962Z,22.24
2023-03-21T22:04:45.752Z,22.20
2023-03-21T22:07:12.816Z,22.21
2023-03-21T22:09:42.583Z,22.19
2023-03-21T22:12:10.055Z,22.16
2023-03-21T22:14:37.025Z,22.16
2023-03-21T22:17:06.394Z,22.14
2023-03-21T22:19:33.258Z,22.13
2023-03-21T22:22:00.121Z,22.11
2023-03-21T22:24:27.339Z,22.10
2023-03-21T22:26:57.794Z,22.09
2023-03-21T22:29:28.694Z,22.10
2023-03-21T22:31:59.048Z,22.06
2023-03-21T22:34:26.784Z,22.05
2023-03-21T22:36:56.874Z,22.06
2023-03-21T22:39:26.744Z,22.05
2023-03-21T22:41:53.939Z,22.03
2023-03-21T22:44:20.994Z,22.00
2023-03-21T22:46:48.473Z,22.00
2023-03-21T22:49:18.934Z,21.99
2023-03-21T22:51:48.490Z,21.97
2023-03-21T22:54:15.943Z,21.96
2023-03-21T22:56:46.357Z,21.94
2023-03-21T22:59:16.259Z,21.92
2023-03-21T23:01:43.469Z,21.90
2023-03-21T23:04:11.057Z,21.89
2023-03-21T23:06:40.289Z,21.86
2023-03-21T23:09:10.480Z,21.87
2023-03-21T23:11:41.383Z,21.85
2023-03-21T23:14:08.872Z,21.84
2023-03-21T23:16:38.975Z,21.80
2023-03-21T23:19:06.531Z,21.80
2023-03-21T23:21:34.359Z,21.78
2023-03-21T23:24:02.202Z,21.76
2023-03-21T23:26:33.334Z,21.76
2023-03-21T23:29:00.963Z,21.76
2023-03-21T23:31:29.726Z,21.72
2023-03-21T23:33:58.940Z,21.72
2023-03-21T23:36:26.190Z,21.73
2023-03-21T23:38:53.815Z,21.72
2023-03-21T23:41:23.279Z,21.70
2023-03-21T23:43:51.142Z,21.70
2023-03-21T23:46:23.069Z,21.68
2023-03-21T23:48:50.529Z,21.67
2023-03-21T23:51:18.434Z,21.67
2023-03-21T23:53:48.855Z,21.65
2023-03-21T23:56:20.387Z,21.64
2023-03-21T23:58:49.728Z,21.63
